Norris Rancho Marino Reserve, California Weather observations

Data are for 10 minute period ending at time listed.
 Day   Time   Solar   Ave.   Ave.  Ave.  Vector  Max.   Baro.   Total    
  of    of     Rad.   Air    Rel.  Wind   Wind   Wind  Press.  Precip.   
Year   Day            Temp.  Hum.  Speed  Dir.   Gust                    
2014   (PST)  Kw/m2    F      %     mph   deg.    mph    mb.     in.     
-------------------------------------------------------------------------
 231    0:00   0.00   59.6    94    3.2   277     5.0   1008.5    0.00 
 231    0:10   0.00   59.8    93    4.9   290     7.2   1008.5    0.00 
 231    0:20   0.00   60.0    94    6.0   295     9.1   1008.5    0.00 
 231    0:30   0.00   60.0    93    7.7   296    11.6   1008.6    0.00 
 231    0:40   0.00   59.7    93    9.9   295    12.3   1008.5    0.00 
 231    0:50   0.00   59.6    94    8.7   290    11.8   1008.5    0.00 
 231    1:00   0.00   59.5    94    7.9   282    10.3   1008.5    0.00 
 231    1:10   0.00   59.4    94    8.6   282    10.7   1008.5    0.00 
 231    1:20   0.00   59.2    95    9.0   285    12.1   1008.5    0.00 
 231    1:30   0.00   59.2    95    8.3   274    11.1   1008.5    0.00 
 231    1:40   0.00   59.2    96    4.4   271     6.7   1008.4    0.00 
 231    1:50   0.00   59.2    96    3.0   330     4.3   1008.4    0.00 
 231    2:00   0.00   59.1    96    3.2   315     5.1   1008.4    0.00 
 231    2:10   0.00   59.2    96    5.0   299     6.9   1008.5    0.00 
 231    2:20   0.00   59.2    96    5.2   298     8.0   1008.6    0.00 
 231    2:30   0.00   59.1    95    7.3   290     9.7   1008.6    0.00 
 231    2:40   0.00   59.1    95    6.6   287    10.7   1008.6    0.00 
 231    2:50   0.00   58.9    95    8.2   269     9.9   1008.6    0.00 
 231    3:00   0.00   58.9    96    7.0   280     9.5   1008.5    0.00 
 231    3:10   0.00   58.8    96    5.5   288     9.8   1008.5    0.00 
 231    3:20   0.00   58.8    96    3.4   304     7.0   1008.6    0.00 
 231    3:30   0.00   58.9    95    1.7   328     4.5   1008.6    0.00 
 231    3:40   0.00   59.1    95    3.1   263     5.0   1008.7    0.00 
 231    3:50   0.00   59.1    95    2.0   208     5.0   1008.6    0.00 
 231    4:00   0.00   59.0    95    2.1   179     3.4   1008.6    0.00 
 231    4:10   0.00   59.0    95    3.0   175     5.8   1008.6    0.00 
 231    4:20   0.00   58.9    95    3.0   186     4.9   1008.6    0.00 
 231    4:30   0.00   59.0    95    3.2   150     6.6   1008.6    0.00 
 231    4:40   0.00   59.0    96    3.0   222     6.5   1008.5    0.00 
 231    4:50   0.00   58.9    96    1.6   317     3.6   1008.4    0.00 
 231    5:00   0.00   58.9    96    1.1   334     2.4   1008.5    0.00 
 231    5:10   0.00   59.0    96    1.4   324     2.5   1008.5    0.00 
 231    5:20   0.00   59.1    96    2.3   304     5.4   1008.6    0.00 
 231    5:30   0.00   59.0    96    5.8   292     7.2   1008.6    0.00 
 231    5:40   0.00   59.2    96    5.0   300     7.2   1008.8    0.00 
 231    5:50   0.00   59.0    96    4.4   322     6.9   1008.9    0.00 
 231    6:00   0.01   59.1    96    3.8   323     6.0   1009.1    0.00 
 231    6:10   0.01   59.1    96    2.2   328     4.4   1009.0    0.00 
 231    6:20   0.01   59.1    96    1.2   348     2.9   1009.1    0.00 
 231    6:30   0.02   59.3    96    2.7   318     4.5   1009.1    0.00 
 231    6:40   0.03   59.4    96    1.3   342     1.9   1009.2    0.00 
 231    6:50   0.04   59.6    96    2.3   307     3.9   1009.3    0.00 
 231    7:00   0.05   59.4    96    2.5   322     3.9   1009.4    0.00 
 231    7:10   0.05   59.5    95    3.1   332     4.8   1009.4    0.00 
 231    7:20   0.05   59.7    95    3.5   308     5.3   1009.5    0.00 
 231    7:30   0.05   59.8    94    5.9   290    10.2   1009.6    0.00 
 231    7:40   0.07   59.7    94    7.5   291     9.6   1009.8    0.00 
 231    7:50   0.07   59.7    95    5.9   298     8.0   1009.9    0.00 
 231    8:00   0.08   59.7    96    5.9   298     8.0   1009.9    0.00 
 231    8:10   0.09   59.9    96    4.1   313     5.7   1009.9    0.00 
 231    8:20   0.12   59.7    95    4.5   319     6.1   1009.9    0.00 
 231    8:30   0.16   60.3    94    3.6   287     5.0   1009.9    0.00 
 231    8:40   0.21   60.7    92    3.7   267     6.9   1010.0    0.00 
 231    8:50   0.26   61.1    91    6.1   274     8.3   1010.1    0.00 
 231    9:00   0.23   60.9    92    5.7   283     7.4   1010.1    0.00 
 231    9:10   0.21   60.7    92    5.1   268     6.4   1010.2    0.00 
 231    9:20   0.25   60.7    93    4.3   268     6.5   1010.3    0.00 
 231    9:30   0.27   60.9    93    3.8   276     6.3   1010.4    0.00 
 231    9:40   0.57   61.6    92    5.6   259     7.5   1010.5    0.00 
 231    9:50   0.64   63.0    87    5.7   252     7.2   1010.5    0.00 
 231   10:00   0.68   63.1    85    6.8   260     8.8   1010.4    0.00 
 231   10:10   0.65   63.0    86    7.4   257     9.1   1010.4    0.00 
 231   10:20   0.47   62.2    88    6.6   264     9.1   1010.3    0.00 
 231   10:30   0.54   62.8    85    7.0   265     8.7   1010.3    0.00 
 231   10:40   0.42   62.2    87    5.6   269     7.2   1010.3    0.00 
 231   10:50   0.49   62.6    85    5.8   283     8.5   1010.3    0.00 
 231   11:00   0.45   62.8    84    6.1   281     8.3   1010.3    0.00 
 231   11:10   0.42   62.5    84    5.8   283     7.9   1010.3    0.00 
 231   11:20   0.46   62.7    84    4.5   274     6.8   1010.3    0.00 
 231   11:30   0.48   63.0    83    3.5   257     5.3   1010.2    0.00 
 231   11:40   0.52   63.3    84    3.0   214     4.5   1010.0    0.00 
 231   11:50   0.51   64.0    81    2.5   198     3.3   1009.9    0.00 
 231   12:00   0.49   63.9    82    2.0   182     3.1   1009.9    0.00 
 231   12:10   0.51   64.2    81    1.6   187     2.6   1009.8    0.00 
 231   12:20   0.51   64.6    80    1.7   186     3.0   1009.7    0.00 
 231   12:30   0.49   65.0    80    1.3   190     2.7   1009.6    0.00 
 231   12:40   0.48   64.8    80    1.8   191     3.1   1009.5    0.00 
 231   12:50   0.48   64.7    80    1.8   192     3.6   1009.4    0.00 
 231   13:00   0.47   64.7    80    1.9   187     3.4   1009.3    0.00 
 231   13:10   0.50   64.6    80    1.9   190     2.8   1009.2    0.00 
 231   13:20   0.51   65.0    79    2.1   196     3.6   1009.0    0.00 
 231   13:30   0.46   64.8    80    2.2   202     3.4   1009.1    0.00 
 231   13:40   0.42   64.2    81    3.1   224     4.3   1009.2    0.00 
 231   13:50   0.39   63.7    82    2.3   215     3.9   1009.1    0.00 
 231   14:00   0.39   63.9    81    2.6   220     3.9   1009.0    0.00 
 231   14:10   0.38   64.3    81    1.8   215     3.3   1009.0    0.00 
 231   14:20   0.37   64.2    81    1.3   227     3.4   1008.9    0.00 
 231   14:30   0.41   64.0    82    3.3   228     5.3   1008.7    0.00 
 231   14:40   0.39   63.5    84    5.1   234     7.4   1008.6    0.00 
 231   14:50   0.36   63.8    84    5.2   253     7.4   1008.6    0.00 
 231   15:00   0.33   63.9    84    3.9   246     7.1   1008.6    0.00 
 231   15:10   0.30   64.2    83    4.0   247     6.6   1008.6    0.00 
 231   15:20   0.30   64.2    83    5.4   250     8.0   1008.6    0.00 
 231   15:30   0.37   64.1    83    6.7   249     8.9   1008.6    0.00 
 231   15:40   0.35   64.2    84    5.2   250     7.2   1008.5    0.00 
 231   15:50   0.28   63.9    84    4.6   250     6.3   1008.5    0.00 
 231   16:00   0.26   63.1    86    4.0   258     5.5   1008.5    0.00 
 231   16:10   0.23   62.9    86    4.2   275     5.9   1008.6    0.00 
 231   16:20   0.20   63.0    87    3.3   275     5.7   1008.7    0.00 
 231   16:30   0.18   62.5    89    4.0   269     5.7   1008.7    0.00 
 231   16:40   0.16   62.7    88    5.9   252     8.8   1008.7    0.00 
 231   16:50   0.14   62.6    88    7.8   260    10.3   1008.8    0.00 
 231   17:00   0.14   62.5    88    6.8   265     8.6   1008.7    0.00 
 231   17:10   0.14   62.5    88    6.7   267     8.6   1008.8    0.00 
 231   17:20   0.12   62.2    89    6.5   276     8.6   1008.6    0.00 
 231   17:30   0.11   62.3    89    6.8   276     9.3   1008.6    0.00 
 231   17:40   0.09   62.0    88    6.2   280     7.7   1008.7    0.00 
 231   17:50   0.06   61.9    89    6.5   288     9.3   1008.7    0.00 
 231   18:00   0.04   61.9    89    6.8   291     8.9   1008.7    0.00 
 231   18:10   0.03   61.8    88    7.2   282     9.6   1008.7    0.00 
 231   18:20   0.02   61.9    86    7.1   280     9.1   1008.8    0.00 
 231   18:30   0.01   62.0    86    6.1   284     7.5   1008.8    0.00 
 231   18:40   0.01   62.0    87    6.1   293     7.7   1008.8    0.00 
 231   18:50   0.01   61.9    86    6.7   297     8.9   1008.8    0.00 
 231   19:00   0.00   61.9    86    6.1   298     7.8   1008.9    0.00 
 231   19:10   0.00   61.9    86    6.0   295     8.2   1008.9    0.00 
 231   19:20   0.00   62.0    86    5.2   294     6.5   1008.9    0.00 
 231   19:30   0.00   61.8    88    4.8   291     7.2   1008.9    0.00 
 231   19:40   0.00   61.8    86    6.0   293     8.9   1008.9    0.00 
 231   19:50   0.00   62.1    83    5.6   295     7.3   1008.9    0.00 
 231   20:00   0.00   62.0    82    5.8   311     9.9   1009.0    0.00 
 231   20:10   0.00   62.1    80    3.3   340     5.3   1009.0    0.00 
 231   20:20   0.00   62.1    81    2.9   305     6.5   1009.0    0.00 
 231   20:30   0.00   62.0    82    2.5   262     5.3   1009.1    0.00 
 231   20:40   0.00   61.9    82    3.3   247     5.7   1009.2    0.00 
 231   20:50   0.00   61.7    83    3.6   275     5.4   1009.5    0.00 
 231   21:00   0.00   61.7    81    3.2   301     7.2   1009.5    0.00 
 231   21:10   0.00   61.8    81    3.0   295     6.2   1009.5    0.00 
 231   21:20   0.00   61.8    80    4.6   268     8.1   1009.6    0.00 
 231   21:30   0.00   61.8    81    3.8   327     6.0   1009.6    0.00 
 231   21:40   0.00   61.7    81    2.6    21     5.8   1009.5    0.00 
 231   21:50   0.00   61.7    81    2.0   317     4.8   1009.3    0.00 
 231   22:00   0.00   61.5    81    3.3   269     5.3   1009.2    0.00 
 231   22:10   0.00   61.6    81    2.5   228     5.2   1009.2    0.00 
 231   22:20   0.00   61.5    81    3.2   269     5.6   1009.1    0.00 
 231   22:30   0.00   61.5    81    2.3   276     3.7   1009.2    0.00 

Return to Norris Rancho Marino Reserve graphs page.


Western Regional Climate Center,wrcc@dri.edu